sensor_id;sensor_type;location;lat;lon;timestamp;temperature;humidity
15081;DHT22;7639;50.784;5.468;2022-12-29T00:01:45;10.50;99.90
15081;DHT22;7639;50.784;5.468;2022-12-29T00:04:18;10.70;99.90
15081;DHT22;7639;50.784;5.468;2022-12-29T00:06:44;10.80;99.90
15081;DHT22;7639;50.784;5.468;2022-12-29T00:09:16;10.80;99.90
15081;DHT22;7639;50.784;5.468;2022-12-29T00:11:42;10.70;99.90
15081;DHT22;7639;50.784;5.468;2022-12-29T00:14:09;10.80;99.90
15081;DHT22;7639;50.784;5.468;2022-12-29T00:16:56;10.70;99.90
15081;DHT22;7639;50.784;5.468;2022-12-29T00:19:22;10.70;99.90
15081;DHT22;7639;50.784;5.468;2022-12-29T00:24:55;10.70;99.90
15081;DHT22;7639;50.784;5.468;2022-12-29T00:27:41;10.70;99.90
15081;DHT22;7639;50.784;5.468;2022-12-29T00:30:27;10.70;99.90
15081;DHT22;7639;50.784;5.468;2022-12-29T00:36:04;10.60;99.90
15081;DHT22;7639;50.784;5.468;2022-12-29T00:38:34;10.60;99.90
15081;DHT22;7639;50.784;5.468;2022-12-29T00:44:08;10.60;99.90
15081;DHT22;7639;50.784;5.468;2022-12-29T00:46:37;10.60;99.90
15081;DHT22;7639;50.784;5.468;2022-12-29T00:49:04;10.60;99.90
15081;DHT22;7639;50.784;5.468;2022-12-29T00:51:51;10.60;99.90
15081;DHT22;7639;50.784;5.468;2022-12-29T00:54:16;10.60;99.90
15081;DHT22;7639;50.784;5.468;2022-12-29T00:56:42;10.60;99.90
15081;DHT22;7639;50.784;5.468;2022-12-29T00:59:10;10.60;99.90
15081;DHT22;7639;50.784;5.468;2022-12-29T01:01:36;10.50;99.90
15081;DHT22;7639;50.784;5.468;2022-12-29T01:04:03;10.50;99.90
15081;DHT22;7639;50.784;5.468;2022-12-29T01:06:29;10.50;99.90
15081;DHT22;7639;50.784;5.468;2022-12-29T01:08:55;10.50;99.90
15081;DHT22;7639;50.784;5.468;2022-12-29T01:11:41;10.50;99.90
15081;DHT22;7639;50.784;5.468;2022-12-29T01:14:07;10.40;99.90
15081;DHT22;7639;50.784;5.468;2022-12-29T01:19:01;10.50;99.90
15081;DHT22;7639;50.784;5.468;2022-12-29T01:21:27;10.40;99.90
15081;DHT22;7639;50.784;5.468;2022-12-29T01:23:53;10.50;99.90
15081;DHT22;7639;50.784;5.468;2022-12-29T01:26:19;10.50;99.90
15081;DHT22;7639;50.784;5.468;2022-12-29T01:28:45;10.50;99.90
15081;DHT22;7639;50.784;5.468;2022-12-29T01:31:13;10.50;99.90
15081;DHT22;7639;50.784;5.468;2022-12-29T01:33:39;10.40;99.90
15081;DHT22;7639;50.784;5.468;2022-12-29T01:36:07;9.30;99.90
15081;DHT22;7639;50.784;5.468;2022-12-29T01:38:35;10.40;99.90
15081;DHT22;7639;50.784;5.468;2022-12-29T01:41:01;10.30;99.90
15081;DHT22;7639;50.784;5.468;2022-12-29T01:43:45;10.30;99.90
15081;DHT22;7639;50.784;5.468;2022-12-29T01:46:25;10.30;99.90
15081;DHT22;7639;50.784;5.468;2022-12-29T01:48:55;10.30;99.90
15081;DHT22;7639;50.784;5.468;2022-12-29T01:51:25;10.40;99.90
15081;DHT22;7639;50.784;5.468;2022-12-29T01:53:53;10.40;99.90
15081;DHT22;7639;50.784;5.468;2022-12-29T01:56:21;10.50;99.90
15081;DHT22;7639;50.784;5.468;2022-12-29T01:58:48;10.50;99.90
15081;DHT22;7639;50.784;5.468;2022-12-29T02:01:18;10.50;99.90
15081;DHT22;7639;50.784;5.468;2022-12-29T02:03:45;10.60;99.90
15081;DHT22;7639;50.784;5.468;2022-12-29T02:08:39;10.50;99.90
15081;DHT22;7639;50.784;5.468;2022-12-29T02:11:05;10.60;99.90
15081;DHT22;7639;50.784;5.468;2022-12-29T02:22:27;10.40;99.90
15081;DHT22;7639;50.784;5.468;2022-12-29T02:34:21;10.30;99.90
15081;DHT22;7639;50.784;5.468;2022-12-29T02:37:03;10.30;99.90
15081;DHT22;7639;50.784;5.468;2022-12-29T02:39:52;10.30;99.90
15081;DHT22;7639;50.784;5.468;2022-12-29T02:45:44;10.30;99.90
15081;DHT22;7639;50.784;5.468;2022-12-29T02:48:20;10.30;99.90
15081;DHT22;7639;50.784;5.468;2022-12-29T02:50:59;10.30;99.90
15081;DHT22;7639;50.784;5.468;2022-12-29T02:53:26;10.40;99.90
15081;DHT22;7639;50.784;5.468;2022-12-29T02:56:13;10.40;99.90
15081;DHT22;7639;50.784;5.468;2022-12-29T02:58:38;10.40;99.90
15081;DHT22;7639;50.784;5.468;2022-12-29T03:01:28;10.40;99.90
15081;DHT22;7639;50.784;5.468;2022-12-29T03:04:10;10.40;99.90
15081;DHT22;7639;50.784;5.468;2022-12-29T03:07:09;10.50;99.90
15081;DHT22;7639;50.784;5.468;2022-12-29T03:10:06;10.60;99.90
15081;DHT22;7639;50.784;5.468;2022-12-29T03:15:44;10.60;99.90
15081;DHT22;7639;50.784;5.468;2022-12-29T03:18:41;10.60;99.90
15081;DHT22;7639;50.784;5.468;2022-12-29T03:21:14;10.60;99.90
15081;DHT22;7639;50.784;5.468;2022-12-29T03:26:11;10.50;99.90
15081;DHT22;7639;50.784;5.468;2022-12-29T03:28:40;10.50;99.90
15081;DHT22;7639;50.784;5.468;2022-12-29T03:31:09;10.50;99.90
15081;DHT22;7639;50.784;5.468;2022-12-29T03:33:37;10.50;99.90
15081;DHT22;7639;50.784;5.468;2022-12-29T03:36:07;10.60;99.90
15081;DHT22;7639;50.784;5.468;2022-12-29T03:38:44;10.60;99.90
15081;DHT22;7639;50.784;5.468;2022-12-29T03:41:15;10.60;99.90
15081;DHT22;7639;50.784;5.468;2022-12-29T03:43:42;10.60;99.90
15081;DHT22;7639;50.784;5.468;2022-12-29T03:46:08;10.70;99.90
15081;DHT22;7639;50.784;5.468;2022-12-29T03:48:34;10.70;99.90
15081;DHT22;7639;50.784;5.468;2022-12-29T03:50:59;10.70;99.90
15081;DHT22;7639;50.784;5.468;2022-12-29T03:53:25;10.60;99.90
15081;DHT22;7639;50.784;5.468;2022-12-29T03:55:51;10.70;99.90
15081;DHT22;7639;50.784;5.468;2022-12-29T03:58:16;10.60;99.90
15081;DHT22;7639;50.784;5.468;2022-12-29T04:00:42;10.70;99.90
15081;DHT22;7639;50.784;5.468;2022-12-29T04:03:08;10.70;99.90
15081;DHT22;7639;50.784;5.468;2022-12-29T04:05:33;10.60;99.90
15081;DHT22;7639;50.784;5.468;2022-12-29T04:07:59;10.70;99.90
15081;DHT22;7639;50.784;5.468;2022-12-29T04:10:25;10.70;99.90
15081;DHT22;7639;50.784;5.468;2022-12-29T04:12:51;10.60;99.90
15081;DHT22;7639;50.784;5.468;2022-12-29T04:15:16;10.60;99.90
15081;DHT22;7639;50.784;5.468;2022-12-29T04:17:42;10.50;99.90
15081;DHT22;7639;50.784;5.468;2022-12-29T04:20:08;10.50;99.90
15081;DHT22;7639;50.784;5.468;2022-12-29T04:25:24;10.60;99.90
15081;DHT22;7639;50.784;5.468;2022-12-29T04:27:50;10.60;99.90
15081;DHT22;7639;50.784;5.468;2022-12-29T04:30:16;10.60;99.90
15081;DHT22;7639;50.784;5.468;2022-12-29T04:32:41;10.60;99.90
15081;DHT22;7639;50.784;5.468;2022-12-29T04:35:07;10.60;99.90
15081;DHT22;7639;50.784;5.468;2022-12-29T04:37:33;10.50;99.90
15081;DHT22;7639;50.784;5.468;2022-12-29T04:39:59;10.60;99.90
15081;DHT22;7639;50.784;5.468;2022-12-29T04:42:24;10.60;99.90
15081;DHT22;7639;50.784;5.468;2022-12-29T04:44:50;10.60;99.90
15081;DHT22;7639;50.784;5.468;2022-12-29T04:47:16;10.50;99.90
15081;DHT22;7639;50.784;5.468;2022-12-29T04:49:41;10.50;99.90
15081;DHT22;7639;50.784;5.468;2022-12-29T04:52:07;10.40;99.90
15081;DHT22;7639;50.784;5.468;2022-12-29T04:54:33;10.40;99.90
15081;DHT22;7639;50.784;5.468;2022-12-29T04:59:26;10.30;99.90
15081;DHT22;7639;50.784;5.468;2022-12-29T05:04:17;10.20;99.90
15081;DHT22;7639;50.784;5.468;2022-12-29T05:06:43;10.20;99.90
15081;DHT22;7639;50.784;5.468;2022-12-29T05:09:09;10.20;99.90
15081;DHT22;7639;50.784;5.468;2022-12-29T05:11:35;10.20;99.90
15081;DHT22;7639;50.784;5.468;2022-12-29T05:14:00;10.30;99.90
15081;DHT22;7639;50.784;5.468;2022-12-29T05:16:26;10.90;99.90
15081;DHT22;7639;50.784;5.468;2022-12-29T05:18:51;10.20;99.90
15081;DHT22;7639;50.784;5.468;2022-12-29T05:21:17;10.20;99.90
15081;DHT22;7639;50.784;5.468;2022-12-29T05:23:43;10.20;99.90
15081;DHT22;7639;50.784;5.468;2022-12-29T05:26:08;10.20;99.90
15081;DHT22;7639;50.784;5.468;2022-12-29T05:28:34;10.10;99.90
15081;DHT22;7639;50.784;5.468;2022-12-29T05:31:00;10.10;99.90
15081;DHT22;7639;50.784;5.468;2022-12-29T05:33:25;10.10;99.90
15081;DHT22;7639;50.784;5.468;2022-12-29T05:35:51;10.00;99.90
15081;DHT22;7639;50.784;5.468;2022-12-29T05:38:17;9.90;99.90
15081;DHT22;7639;50.784;5.468;2022-12-29T05:40:43;10.00;99.90
15081;DHT22;7639;50.784;5.468;2022-12-29T05:43:09;9.90;99.90
15081;DHT22;7639;50.784;5.468;2022-12-29T05:45:35;9.90;99.90
15081;DHT22;7639;50.784;5.468;2022-12-29T05:48:08;9.90;99.90
15081;DHT22;7639;50.784;5.468;2022-12-29T05:50:40;9.80;99.90
15081;DHT22;7639;50.784;5.468;2022-12-29T05:53:06;9.80;99.90
15081;DHT22;7639;50.784;5.468;2022-12-29T05:57:57;9.70;99.90
15081;DHT22;7639;50.784;5.468;2022-12-29T06:00:23;9.70;99.90
15081;DHT22;7639;50.784;5.468;2022-12-29T06:02:49;9.70;99.90
15081;DHT22;7639;50.784;5.468;2022-12-29T06:05:15;9.70;99.90
15081;DHT22;7639;50.784;5.468;2022-12-29T06:07:41;9.70;99.90
15081;DHT22;7639;50.784;5.468;2022-12-29T06:12:33;9.80;99.90
15081;DHT22;7639;50.784;5.468;2022-12-29T06:14:59;9.80;99.90
15081;DHT22;7639;50.784;5.468;2022-12-29T06:17:24;9.80;99.90
15081;DHT22;7639;50.784;5.468;2022-12-29T06:19:51;9.70;99.90
15081;DHT22;7639;50.784;5.468;2022-12-29T06:24:43;9.60;99.90
15081;DHT22;7639;50.784;5.468;2022-12-29T06:27:08;9.60;99.90
15081;DHT22;7639;50.784;5.468;2022-12-29T06:29:34;9.60;99.90
15081;DHT22;7639;50.784;5.468;2022-12-29T06:34:28;9.60;99.90
15081;DHT22;7639;50.784;5.468;2022-12-29T06:36:54;9.50;99.90
15081;DHT22;7639;50.784;5.468;2022-12-29T06:39:20;9.60;99.90
15081;DHT22;7639;50.784;5.468;2022-12-29T06:41:45;9.50;99.90
15081;DHT22;7639;50.784;5.468;2022-12-29T06:46:37;9.40;99.90
15081;DHT22;7639;50.784;5.468;2022-12-29T06:51:29;9.40;99.90
15081;DHT22;7639;50.784;5.468;2022-12-29T06:53:55;9.40;99.90
15081;DHT22;7639;50.784;5.468;2022-12-29T06:56:20;9.40;99.90
15081;DHT22;7639;50.784;5.468;2022-12-29T06:58:46;9.40;99.90
15081;DHT22;7639;50.784;5.468;2022-12-29T07:01:12;9.40;99.90
15081;DHT22;7639;50.784;5.468;2022-12-29T07:03:37;9.40;99.90
15081;DHT22;7639;50.784;5.468;2022-12-29T07:06:03;9.40;99.90
15081;DHT22;7639;50.784;5.468;2022-12-29T07:08:29;9.40;99.90
15081;DHT22;7639;50.784;5.468;2022-12-29T07:10:55;9.40;99.90
15081;DHT22;7639;50.784;5.468;2022-12-29T07:13:20;9.50;99.90
15081;DHT22;7639;50.784;5.468;2022-12-29T07:15:46;9.50;99.90
15081;DHT22;7639;50.784;5.468;2022-12-29T07:18:12;9.50;99.90
15081;DHT22;7639;50.784;5.468;2022-12-29T07:20:37;9.60;99.90
15081;DHT22;7639;50.784;5.468;2022-12-29T07:23:03;9.60;99.90
15081;DHT22;7639;50.784;5.468;2022-12-29T07:27:55;9.60;99.90
15081;DHT22;7639;50.784;5.468;2022-12-29T07:30:20;9.60;99.90
15081;DHT22;7639;50.784;5.468;2022-12-29T07:32:46;9.60;99.90
15081;DHT22;7639;50.784;5.468;2022-12-29T07:37:38;9.50;99.90
15081;DHT22;7639;50.784;5.468;2022-12-29T07:40:04;9.50;99.90
15081;DHT22;7639;50.784;5.468;2022-12-29T07:42:31;9.40;99.90
15081;DHT22;7639;50.784;5.468;2022-12-29T07:44:57;9.40;99.90
15081;DHT22;7639;50.784;5.468;2022-12-29T07:47:22;9.40;99.90
15081;DHT22;7639;50.784;5.468;2022-12-29T07:49:48;9.40;99.90
15081;DHT22;7639;50.784;5.468;2022-12-29T07:52:13;9.40;99.90
15081;DHT22;7639;50.784;5.468;2022-12-29T07:54:39;9.40;99.90
15081;DHT22;7639;50.784;5.468;2022-12-29T07:57:05;9.40;99.90
15081;DHT22;7639;50.784;5.468;2022-12-29T08:06:49;9.30;99.90
15081;DHT22;7639;50.784;5.468;2022-12-29T08:09:15;9.30;99.90
15081;DHT22;7639;50.784;5.468;2022-12-29T08:11:41;9.30;99.90
15081;DHT22;7639;50.784;5.468;2022-12-29T08:18:58;9.30;99.90
15081;DHT22;7639;50.784;5.468;2022-12-29T08:21:25;9.30;99.90
15081;DHT22;7639;50.784;5.468;2022-12-29T08:28:44;9.40;99.90
15081;DHT22;7639;50.784;5.468;2022-12-29T08:31:09;9.30;99.90
15081;DHT22;7639;50.784;5.468;2022-12-29T08:33:35;9.40;99.90
15081;DHT22;7639;50.784;5.468;2022-12-29T08:36:03;9.40;99.90
15081;DHT22;7639;50.784;5.468;2022-12-29T08:40:56;9.50;99.90
15081;DHT22;7639;50.784;5.468;2022-12-29T08:43:22;9.60;99.90
15081;DHT22;7639;50.784;5.468;2022-12-29T08:48:14;9.80;99.90
15081;DHT22;7639;50.784;5.468;2022-12-29T08:50:44;9.80;99.90
15081;DHT22;7639;50.784;5.468;2022-12-29T08:53:09;9.80;99.90
15081;DHT22;7639;50.784;5.468;2022-12-29T08:55:35;9.80;99.90
15081;DHT22;7639;50.784;5.468;2022-12-29T08:58:01;9.80;99.90
15081;DHT22;7639;50.784;5.468;2022-12-29T09:00:26;9.90;99.90
15081;DHT22;7639;50.784;5.468;2022-12-29T09:02:52;9.90;99.90
15081;DHT22;7639;50.784;5.468;2022-12-29T09:10:10;10.00;99.90
15081;DHT22;7639;50.784;5.468;2022-12-29T09:12:36;10.00;99.90
15081;DHT22;7639;50.784;5.468;2022-12-29T09:15:02;10.00;99.90
15081;DHT22;7639;50.784;5.468;2022-12-29T09:17:28;10.00;99.90
15081;DHT22;7639;50.784;5.468;2022-12-29T09:20:16;10.00;99.90
15081;DHT22;7639;50.784;5.468;2022-12-29T09:22:42;10.10;99.90
15081;DHT22;7639;50.784;5.468;2022-12-29T09:25:09;10.10;99.90
15081;DHT22;7639;50.784;5.468;2022-12-29T09:27:36;10.10;99.90
15081;DHT22;7639;50.784;5.468;2022-12-29T09:30:03;10.10;99.90
15081;DHT22;7639;50.784;5.468;2022-12-29T09:32:31;10.10;99.90
15081;DHT22;7639;50.784;5.468;2022-12-29T09:34:57;10.10;99.90
15081;DHT22;7639;50.784;5.468;2022-12-29T09:37:22;10.00;99.90
15081;DHT22;7639;50.784;5.468;2022-12-29T09:39:48;10.00;99.90
15081;DHT22;7639;50.784;5.468;2022-12-29T09:48:12;9.90;99.90
15081;DHT22;7639;50.784;5.468;2022-12-29T09:50:39;10.00;99.90
15081;DHT22;7639;50.784;5.468;2022-12-29T09:55:46;10.30;99.90
15081;DHT22;7639;50.784;5.468;2022-12-29T09:58:34;10.40;99.90
15081;DHT22;7639;50.784;5.468;2022-12-29T10:06:32;10.70;99.90
15081;DHT22;7639;50.784;5.468;2022-12-29T10:11:55;10.70;99.90
15081;DHT22;7639;50.784;5.468;2022-12-29T10:14:50;10.80;99.90
15081;DHT22;7639;50.784;5.468;2022-12-29T10:17:34;10.80;99.90
15081;DHT22;7639;50.784;5.468;2022-12-29T10:23:10;10.90;99.90
15081;DHT22;7639;50.784;5.468;2022-12-29T10:25:42;10.90;99.90
15081;DHT22;7639;50.784;5.468;2022-12-29T10:33:27;11.00;99.90
15081;DHT22;7639;50.784;5.468;2022-12-29T10:48:49;10.70;99.90
15081;DHT22;7639;50.784;5.468;2022-12-29T10:51:26;10.70;99.90
15081;DHT22;7639;50.784;5.468;2022-12-29T10:54:03;10.70;99.90
15081;DHT22;7639;50.784;5.468;2022-12-29T10:56:38;10.70;99.90
15081;DHT22;7639;50.784;5.468;2022-12-29T10:59:14;10.80;99.90
15081;DHT22;7639;50.784;5.468;2022-12-29T11:01:58;10.90;99.90
15081;DHT22;7639;50.784;5.468;2022-12-29T11:09:28;10.90;99.90
15081;DHT22;7639;50.784;5.468;2022-12-29T11:11:55;10.90;99.90
15081;DHT22;7639;50.784;5.468;2022-12-29T11:16:58;10.80;99.90
15081;DHT22;7639;50.784;5.468;2022-12-29T11:19:28;10.80;99.90
15081;DHT22;7639;50.784;5.468;2022-12-29T11:22:13;10.70;99.90
15081;DHT22;7639;50.784;5.468;2022-12-29T11:27:18;10.80;99.90
15081;DHT22;7639;50.784;5.468;2022-12-29T11:29:46;10.80;99.90
15081;DHT22;7639;50.784;5.468;2022-12-29T11:40:09;10.80;99.90
15081;DHT22;7639;50.784;5.468;2022-12-29T11:42:51;10.80;99.90
15081;DHT22;7639;50.784;5.468;2022-12-29T11:45:21;10.70;99.90
15081;DHT22;7639;50.784;5.468;2022-12-29T11:47:50;10.60;99.90
15081;DHT22;7639;50.784;5.468;2022-12-29T11:50:20;10.60;99.90
15081;DHT22;7639;50.784;5.468;2022-12-29T11:52:48;10.50;99.90
15081;DHT22;7639;50.784;5.468;2022-12-29T11:55:21;10.50;99.90
15081;DHT22;7639;50.784;5.468;2022-12-29T11:57:50;10.50;99.90
15081;DHT22;7639;50.784;5.468;2022-12-29T12:00:20;10.60;99.90
15081;DHT22;7639;50.784;5.468;2022-12-29T12:05:24;10.80;99.90
15081;DHT22;7639;50.784;5.468;2022-12-29T12:07:58;10.80;99.90
15081;DHT22;7639;50.784;5.468;2022-12-29T12:10:33;10.80;99.90
15081;DHT22;7639;50.784;5.468;2022-12-29T12:13:14;10.70;99.90
15081;DHT22;7639;50.784;5.468;2022-12-29T12:21:05;10.50;99.90
15081;DHT22;7639;50.784;5.468;2022-12-29T12:28:56;10.40;99.90
15081;DHT22;7639;50.784;5.468;2022-12-29T12:31:41;10.40;99.90
15081;DHT22;7639;50.784;5.468;2022-12-29T12:34:31;10.40;99.90
15081;DHT22;7639;50.784;5.468;2022-12-29T12:37:21;10.40;99.90
15081;DHT22;7639;50.784;5.468;2022-12-29T12:43:16;10.30;99.90
15081;DHT22;7639;50.784;5.468;2022-12-29T12:45:56;9.80;99.90
15081;DHT22;7639;50.784;5.468;2022-12-29T12:48:50;10.40;99.90
15081;DHT22;7639;50.784;5.468;2022-12-29T12:51:47;10.40;99.90
15081;DHT22;7639;50.784;5.468;2022-12-29T12:57:05;10.50;99.90
15081;DHT22;7639;50.784;5.468;2022-12-29T12:59:41;10.50;99.90
15081;DHT22;7639;50.784;5.468;2022-12-29T13:11:11;10.30;99.90
15081;DHT22;7639;50.784;5.468;2022-12-29T13:14:17;10.20;99.90
15081;DHT22;7639;50.784;5.468;2022-12-29T13:17:08;10.20;99.90
15081;DHT22;7639;50.784;5.468;2022-12-29T13:22:37;10.10;99.90
15081;DHT22;7639;50.784;5.468;2022-12-29T13:25:27;10.10;99.90
15081;DHT22;7639;50.784;5.468;2022-12-29T13:28:21;10.00;99.90
15081;DHT22;7639;50.784;5.468;2022-12-29T13:37:02;10.00;99.90
15081;DHT22;7639;50.784;5.468;2022-12-29T13:39:36;9.90;99.90
15081;DHT22;7639;50.784;5.468;2022-12-29T13:42:04;9.70;99.90
15081;DHT22;7639;50.784;5.468;2022-12-29T13:47:14;9.70;99.90
15081;DHT22;7639;50.784;5.468;2022-12-29T13:49:43;9.70;99.90
15081;DHT22;7639;50.784;5.468;2022-12-29T13:55:36;9.70;99.90
15081;DHT22;7639;50.784;5.468;2022-12-29T13:58:26;9.70;99.90
15081;DHT22;7639;50.784;5.468;2022-12-29T14:03:48;9.80;99.90
15081;DHT22;7639;50.784;5.468;2022-12-29T14:06:25;9.80;99.90
15081;DHT22;7639;50.784;5.468;2022-12-29T14:08:55;9.80;99.90
15081;DHT22;7639;50.784;5.468;2022-12-29T14:16:33;9.80;99.90
15081;DHT22;7639;50.784;5.468;2022-12-29T14:24:43;9.70;99.90
15081;DHT22;7639;50.784;5.468;2022-12-29T14:30:02;9.60;99.90
15081;DHT22;7639;50.784;5.468;2022-12-29T14:32:40;9.60;99.90
15081;DHT22;7639;50.784;5.468;2022-12-29T14:35:38;9.60;99.90
15081;DHT22;7639;50.784;5.468;2022-12-29T14:38:13;9.60;99.90
15081;DHT22;7639;50.784;5.468;2022-12-29T14:40:40;9.60;99.90
15081;DHT22;7639;50.784;5.468;2022-12-29T14:43:12;9.60;99.90
15081;DHT22;7639;50.784;5.468;2022-12-29T14:50:52;9.50;99.90
15081;DHT22;7639;50.784;5.468;2022-12-29T14:53:53;9.40;99.90
15081;DHT22;7639;50.784;5.468;2022-12-29T14:56:24;9.30;99.90
15081;DHT22;7639;50.784;5.468;2022-12-29T14:58:54;9.20;99.90
15081;DHT22;7639;50.784;5.468;2022-12-29T15:04:20;9.10;99.90
15081;DHT22;7639;50.784;5.468;2022-12-29T15:06:48;9.10;99.90
15081;DHT22;7639;50.784;5.468;2022-12-29T15:14:57;9.00;99.90
15081;DHT22;7639;50.784;5.468;2022-12-29T15:19:57;8.90;99.90
15081;DHT22;7639;50.784;5.468;2022-12-29T15:22:23;8.90;99.90
15081;DHT22;7639;50.784;5.468;2022-12-29T15:24:51;8.80;99.90
15081;DHT22;7639;50.784;5.468;2022-12-29T15:27:22;8.80;99.90
15081;DHT22;7639;50.784;5.468;2022-12-29T15:29:59;8.70;99.90
15081;DHT22;7639;50.784;5.468;2022-12-29T15:32:28;8.70;99.90
15081;DHT22;7639;50.784;5.468;2022-12-29T15:34:56;8.70;99.90
15081;DHT22;7639;50.784;5.468;2022-12-29T15:37:33;8.60;99.90
15081;DHT22;7639;50.784;5.468;2022-12-29T15:40:01;8.50;99.90
15081;DHT22;7639;50.784;5.468;2022-12-29T15:42:52;8.40;99.90
15081;DHT22;7639;50.784;5.468;2022-12-29T15:45:20;8.40;99.90
15081;DHT22;7639;50.784;5.468;2022-12-29T15:50:29;8.40;99.90
15081;DHT22;7639;50.784;5.468;2022-12-29T15:52:56;8.40;99.90
15081;DHT22;7639;50.784;5.468;2022-12-29T15:55:32;8.30;99.90
15081;DHT22;7639;50.784;5.468;2022-12-29T15:58:00;8.30;99.90
15081;DHT22;7639;50.784;5.468;2022-12-29T16:00:30;8.30;99.90
15081;DHT22;7639;50.784;5.468;2022-12-29T16:03:00;8.30;99.90
15081;DHT22;7639;50.784;5.468;2022-12-29T16:05:35;8.30;99.90
15081;DHT22;7639;50.784;5.468;2022-12-29T16:10:33;8.20;99.90
15081;DHT22;7639;50.784;5.468;2022-12-29T16:13:27;8.20;99.90
15081;DHT22;7639;50.784;5.468;2022-12-29T16:15:59;8.20;99.90
15081;DHT22;7639;50.784;5.468;2022-12-29T16:20:55;8.20;99.90
15081;DHT22;7639;50.784;5.468;2022-12-29T16:25:51;8.20;99.90
15081;DHT22;7639;50.784;5.468;2022-12-29T16:30:58;8.30;99.90
15081;DHT22;7639;50.784;5.468;2022-12-29T16:33:48;8.30;99.90
15081;DHT22;7639;50.784;5.468;2022-12-29T16:39:20;8.30;99.90
15081;DHT22;7639;50.784;5.468;2022-12-29T16:41:47;8.30;99.90
15081;DHT22;7639;50.784;5.468;2022-12-29T16:44:22;8.30;99.90
15081;DHT22;7639;50.784;5.468;2022-12-29T16:47:18;8.30;99.90
15081;DHT22;7639;50.784;5.468;2022-12-29T16:49:50;8.30;99.90
15081;DHT22;7639;50.784;5.468;2022-12-29T16:52:29;8.30;99.90
15081;DHT22;7639;50.784;5.468;2022-12-29T16:59:59;8.20;99.90
15081;DHT22;7639;50.784;5.468;2022-12-29T17:02:28;8.10;99.90
15081;DHT22;7639;50.784;5.468;2022-12-29T17:04:54;8.00;99.90
15081;DHT22;7639;50.784;5.468;2022-12-29T17:12:20;7.80;99.90
15081;DHT22;7639;50.784;5.468;2022-12-29T17:14:49;7.70;99.90
15081;DHT22;7639;50.784;5.468;2022-12-29T17:17:37;7.70;99.90
15081;DHT22;7639;50.784;5.468;2022-12-29T17:20:22;7.60;99.90
15081;DHT22;7639;50.784;5.468;2022-12-29T17:22:48;7.50;99.90
15081;DHT22;7639;50.784;5.468;2022-12-29T17:25:18;7.50;99.90
15081;DHT22;7639;50.784;5.468;2022-12-29T17:27:48;7.40;99.90
15081;DHT22;7639;50.784;5.468;2022-12-29T17:30:23;7.40;99.90
15081;DHT22;7639;50.784;5.468;2022-12-29T17:32:55;7.30;99.90
15081;DHT22;7639;50.784;5.468;2022-12-29T17:35:23;7.20;99.90
15081;DHT22;7639;50.784;5.468;2022-12-29T17:37:49;7.20;99.90
15081;DHT22;7639;50.784;5.468;2022-12-29T17:42:45;7.20;99.90
15081;DHT22;7639;50.784;5.468;2022-12-29T17:45:15;7.20;99.90
15081;DHT22;7639;50.784;5.468;2022-12-29T17:47:41;7.20;99.90
15081;DHT22;7639;50.784;5.468;2022-12-29T17:52:38;7.30;99.90
15081;DHT22;7639;50.784;5.468;2022-12-29T17:55:04;7.20;99.90
15081;DHT22;7639;50.784;5.468;2022-12-29T17:57:30;7.20;99.90
15081;DHT22;7639;50.784;5.468;2022-12-29T17:59:56;7.20;99.90
15081;DHT22;7639;50.784;5.468;2022-12-29T18:02:31;7.20;99.90
15081;DHT22;7639;50.784;5.468;2022-12-29T18:04:57;7.10;99.90
15081;DHT22;7639;50.784;5.468;2022-12-29T18:07:26;7.10;99.90
15081;DHT22;7639;50.784;5.468;2022-12-29T18:09:52;7.00;99.90
15081;DHT22;7639;50.784;5.468;2022-12-29T18:15:19;6.90;99.90
15081;DHT22;7639;50.784;5.468;2022-12-29T18:17:45;6.90;99.90
15081;DHT22;7639;50.784;5.468;2022-12-29T18:20:11;6.80;99.90
15081;DHT22;7639;50.784;5.468;2022-12-29T18:22:36;6.80;99.90
15081;DHT22;7639;50.784;5.468;2022-12-29T18:27:30;6.60;99.90
15081;DHT22;7639;50.784;5.468;2022-12-29T18:29:56;6.60;99.90
15081;DHT22;7639;50.784;5.468;2022-12-29T18:32:21;6.50;99.90
15081;DHT22;7639;50.784;5.468;2022-12-29T18:34:47;6.50;99.90
15081;DHT22;7639;50.784;5.468;2022-12-29T18:37:13;6.50;99.90
15081;DHT22;7639;50.784;5.468;2022-12-29T18:39:39;6.40;99.90
15081;DHT22;7639;50.784;5.468;2022-12-29T18:46:58;6.40;99.90
15081;DHT22;7639;50.784;5.468;2022-12-29T18:49:25;6.30;99.90
15081;DHT22;7639;50.784;5.468;2022-12-29T18:51:51;6.30;99.90
15081;DHT22;7639;50.784;5.468;2022-12-29T18:54:28;6.30;99.90
15081;DHT22;7639;50.784;5.468;2022-12-29T18:56:54;6.20;99.90
15081;DHT22;7639;50.784;5.468;2022-12-29T18:59:20;6.20;99.90
15081;DHT22;7639;50.784;5.468;2022-12-29T19:04:13;6.30;99.90
15081;DHT22;7639;50.784;5.468;2022-12-29T19:06:39;6.30;99.90
15081;DHT22;7639;50.784;5.468;2022-12-29T19:09:05;6.40;99.90
15081;DHT22;7639;50.784;5.468;2022-12-29T19:11:31;6.40;99.90
15081;DHT22;7639;50.784;5.468;2022-12-29T19:13:57;6.30;99.90
15081;DHT22;7639;50.784;5.468;2022-12-29T19:16:23;6.30;99.90
15081;DHT22;7639;50.784;5.468;2022-12-29T19:18:51;6.30;99.90
15081;DHT22;7639;50.784;5.468;2022-12-29T19:21:19;6.30;99.90
15081;DHT22;7639;50.784;5.468;2022-12-29T19:26:30;6.30;99.90
15081;DHT22;7639;50.784;5.468;2022-12-29T19:28:56;6.30;99.90
15081;DHT22;7639;50.784;5.468;2022-12-29T19:31:23;6.30;99.90
15081;DHT22;7639;50.784;5.468;2022-12-29T19:33:48;6.30;99.90
15081;DHT22;7639;50.784;5.468;2022-12-29T19:36:14;6.40;99.90
15081;DHT22;7639;50.784;5.468;2022-12-29T19:38:41;6.40;99.90
15081;DHT22;7639;50.784;5.468;2022-12-29T19:41:07;6.40;99.90
15081;DHT22;7639;50.784;5.468;2022-12-29T19:43:33;6.40;99.90
15081;DHT22;7639;50.784;5.468;2022-12-29T19:46:06;6.30;99.90
15081;DHT22;7639;50.784;5.468;2022-12-29T19:51:06;6.30;99.90
15081;DHT22;7639;50.784;5.468;2022-12-29T19:53:33;6.30;99.90
15081;DHT22;7639;50.784;5.468;2022-12-29T19:58:27;6.30;99.90
15081;DHT22;7639;50.784;5.468;2022-12-29T20:05:48;6.30;99.90
15081;DHT22;7639;50.784;5.468;2022-12-29T20:08:14;6.30;99.90
15081;DHT22;7639;50.784;5.468;2022-12-29T20:13:05;6.30;99.90
15081;DHT22;7639;50.784;5.468;2022-12-29T20:15:31;6.30;99.90
15081;DHT22;7639;50.784;5.468;2022-12-29T20:17:57;6.30;99.90
15081;DHT22;7639;50.784;5.468;2022-12-29T20:20:23;6.30;99.90
15081;DHT22;7639;50.784;5.468;2022-12-29T20:22:48;6.30;99.90
15081;DHT22;7639;50.784;5.468;2022-12-29T20:25:14;6.30;99.90
15081;DHT22;7639;50.784;5.468;2022-12-29T20:30:06;6.20;99.90
15081;DHT22;7639;50.784;5.468;2022-12-29T20:32:32;6.20;99.90
15081;DHT22;7639;50.784;5.468;2022-12-29T20:35:00;6.20;99.90
15081;DHT22;7639;50.784;5.468;2022-12-29T20:37:26;6.20;99.90
15081;DHT22;7639;50.784;5.468;2022-12-29T20:39:52;6.20;99.90
15081;DHT22;7639;50.784;5.468;2022-12-29T20:42:18;6.20;99.90
15081;DHT22;7639;50.784;5.468;2022-12-29T20:44:44;6.20;99.90
15081;DHT22;7639;50.784;5.468;2022-12-29T20:47:10;6.20;99.90
15081;DHT22;7639;50.784;5.468;2022-12-29T20:49:35;6.20;99.90
15081;DHT22;7639;50.784;5.468;2022-12-29T20:52:02;6.20;99.90
15081;DHT22;7639;50.784;5.468;2022-12-29T20:54:29;6.20;99.90
15081;DHT22;7639;50.784;5.468;2022-12-29T20:56:55;6.20;99.90
15081;DHT22;7639;50.784;5.468;2022-12-29T20:59:20;6.10;99.90
15081;DHT22;7639;50.784;5.468;2022-12-29T21:01:47;6.10;99.90